ADDS METAR Data INFO
IDs: Format: Raw Decoded Include TAF

Data at: 0116 UTC 21 Oct 2017

KDXX 210115Z AUTO 18016G22KT 10SM CLR 22/14 A2955 RMK AO2
KDXX 210054Z AUTO 17013G22KT 10SM CLR 22/13 A2955 RMK AO2
KDXX 210034Z AUTO 16009KT 10SM CLR 22/13 A2956 RMK AO2
KDXX 210014Z AUTO 17010KT 10SM CLR 22/13 A2955 RMK AO2
KDXX 202354Z AUTO 17011G16KT 10SM CLR 23/13 A2955 RMK AO2
KDXX 202334Z AUTO 18012G24KT 10SM CLR 24/12 A2954 RMK AO2
KDXX 202314Z AUTO 17016G21KT 10SM CLR 24/12 A2954 RMK AO2
KDXX 202254Z AUTO 17017G22KT 10SM CLR 25/12 A2954 RMK AO2
KDXX 202234Z AUTO 18014G26KT 10SM CLR 25/12 A2955 RMK AO2
KDXX 202214Z AUTO 17017G29KT 10SM CLR 25/12 A2955 RMK AO2
KDXX 202154Z AUTO 19015G23KT 10SM CLR 25/12 A2956 RMK AO2
KDXX 202134Z AUTO 18020G29KT 10SM CLR 26/13 A2956 RMK AO2
KDXX 202114Z AUTO 19015G22KT 10SM CLR 26/12 A2957 RMK AO2
KDXX 202054Z AUTO 18019G29KT 10SM CLR 26/12 A2957 RMK AO2
KDXX 202034Z AUTO 18020G27KT 10SM CLR 26/12 A2957 RMK AO2
KDXX 202014Z AUTO 18018G30KT 10SM CLR 26/12 A2958 RMK AO2
KDXX 201954Z AUTO 18020G26KT 10SM CLR 26/13 A2959 RMK AO2
KDXX 201934Z AUTO 18017G22KT 10SM CLR 26/13 A2960 RMK AO2
KDXX 201914Z AUTO 18019G27KT 10SM CLR 25/13 A2961 RMK AO2
KDXX 201854Z AUTO 17016G25KT 10SM CLR 25/12 A2961 RMK AO2
KDXX 201834Z AUTO 17018G25KT 10SM CLR 26/12 A2963 RMK AO2
KDXX 201814Z AUTO 18018G23KT 10SM CLR 25/12 A2964 RMK AO2
KDXX 201754Z AUTO 18017G22KT 10SM CLR 24/12 A2965 RMK AO2
KDXX 201734Z AUTO 17018G22KT 10SM CLR 23/12 A2966 RMK AO2
KDXX 201714Z AUTO 18018G22KT 10SM CLR 23/12 A2968 RMK AO2
KDXX 201654Z AUTO 18016G22KT 10SM CLR 22/11 A2968 RMK AO2
KDXX 201634Z AUTO 18017G21KT 10SM CLR 21/11 A2970 RMK AO2
KDXX 201614Z AUTO 19013G19KT 10SM CLR 21/11 A2971 RMK AO2
KDXX 201555Z AUTO 19016G21KT 10SM CLR 20/11 A2971 RMK AO2
KDXX 201534Z AUTO 20014G20KT 10SM CLR 21/11 A2972 RMK AO2
KDXX 201514Z AUTO 19012G20KT 10SM CLR 20/11 A2973 RMK AO2
KDXX 201455Z AUTO 20014G19KT 10SM CLR 19/10 A2973 RMK AO2
KDXX 201434Z AUTO 19012G17KT 10SM CLR 18/10 A2974 RMK AO2
KDXX 201414Z AUTO 20012G15KT 10SM CLR 18/09 A2974 RMK AO2
KDXX 201354Z AUTO 20011KT 10SM CLR 17/09 A2974 RMK AO2
KDXX 201334Z AUTO 20010KT 10SM CLR 17/09 A2974 RMK AO2
KDXX 201314Z AUTO 19009KT 10SM CLR 17/09 A2974 RMK AO2
KDXX 201254Z AUTO 19012KT 10SM CLR 17/09 A2974 RMK AO2
KDXX 201234Z AUTO 20011G17KT 10SM CLR 17/09 A2974 RMK AO2
KDXX 201214Z AUTO 19011G16KT 10SM CLR 17/09 A2974 RMK AO2
KDXX 201154Z AUTO 20010G15KT 10SM CLR 17/09 A2975 RMK AO2
KDXX 201134Z AUTO 20007KT 10SM CLR 17/09 A2975 RMK AO2
KDXX 201114Z AUTO 19010KT 10SM CLR 17/09 A2975 RMK AO2
KDXX 201054Z AUTO 19009KT 10SM CLR 17/09 A2975 RMK AO2
KDXX 201034Z AUTO 19008KT 10SM CLR 18/10 A2975 RMK AO2
KDXX 201014Z AUTO 19009G14KT 10SM CLR 18/10 A2975 RMK AO2
KDXX 200954Z AUTO 19008KT 10SM CLR 18/10 A2976 RMK AO2
KDXX 200934Z AUTO 19007KT 10SM CLR 18/09 A2976 RMK AO2
KDXX 200914Z AUTO 20006KT 10SM CLR 18/09 A2976 RMK AO2
KDXX 200854Z AUTO 19009KT 10SM CLR 18/10 A2976 RMK AO2
KDXX 200834Z AUTO 19009KT 10SM CLR 18/10 A2977 RMK AO2
KDXX 200814Z AUTO 19010KT 10SM CLR 18/11 A2978 RMK AO2
KDXX 200754Z AUTO 19010KT 10SM CLR 19/11 A2978 RMK AO2
KDXX 200734Z AUTO 19007KT 10SM CLR 18/11 A2978 RMK AO2
KDXX 200714Z AUTO 20009G14KT 10SM CLR 19/11 A2979 RMK AO2
KDXX 200654Z AUTO 20008KT 10SM CLR 19/11 A2979 RMK AO2
KDXX 200634Z AUTO 19010G16KT 10SM CLR 19/11 A2979 RMK AO2
KDXX 200614Z AUTO 18008KT 10SM CLR 19/11 A2980 RMK AO2
KDXX 200554Z AUTO 19009G14KT 10SM CLR 18/12 A2980 RMK AO2
KDXX 200534Z AUTO 17005KT 10SM CLR 17/11 A2981 RMK AO2
KDXX 200514Z AUTO 18006KT 10SM CLR 14/10 A2981 RMK AO2
KDXX 200454Z AUTO 14006KT 10SM CLR 15/10 A2981 RMK AO2
KDXX 200434Z AUTO 14006KT 10SM CLR 15/10 A2982 RMK AO2
KDXX 200414Z AUTO 14006KT 10SM CLR 13/09 A2982 RMK AO2
KDXX 200354Z AUTO 16005KT 10SM CLR 13/08 A2982 RMK AO2
KDXX 200334Z AUTO 14007KT 10SM CLR 14/09 A2982 RMK AO2
KDXX 200314Z AUTO 14008KT 10SM CLR 14/09 A2983 RMK AO2
KDXX 200254Z AUTO 16007KT 10SM CLR 15/09 A2982 RMK AO2
KDXX 200234Z AUTO 17005KT 10SM CLR 16/09 A2983 RMK AO2
KDXX 200214Z AUTO 18007KT 10SM CLR 17/09 A2983 RMK AO2
KDXX 200154Z AUTO 18007KT 7SM CLR 17/09 A2983 RMK AO2
KDXX 200134Z AUTO 17006KT 7SM CLR 17/09 A2983 RMK AO2
KDXX 200114Z AUTO 17006KT 10SM CLR 18/09 A2984 RMK AO2
KDXX 200054Z AUTO 16009KT 10SM CLR 18/09 A2984 RMK AO2
KDXX 200034Z AUTO 17008KT 10SM CLR 18/09 A2984 RMK AO2
KDXX 200014Z AUTO 17006KT 7SM CLR 18/08 A2984 RMK AO2
KDXX 192354Z AUTO 18007KT 10SM CLR 21/08 A2984 RMK AO2
KDXX 192334Z AUTO 18007KT 10SM CLR 22/08 A2983 RMK AO2
KDXX 192314Z AUTO 19009KT 10SM CLR 23/08 A2983 RMK AO2
KDXX 192254Z AUTO 19008G15KT 10SM CLR 24/08 A2983 RMK AO2
KDXX 192234Z AUTO 18011KT 10SM CLR 24/08 A2983 RMK AO2
KDXX 192214Z AUTO 18008G19KT 10SM CLR 25/07 A2983 RMK AO2
KDXX 192154Z AUTO 19013G18KT 10SM CLR 26/06 A2983 RMK AO2
KDXX 192134Z AUTO 18011G21KT 10SM CLR 26/07 A2984 RMK AO2
KDXX 192114Z AUTO 18015G20KT 10SM CLR 26/07 A2984 RMK AO2
KDXX 192054Z AUTO 18014G21KT 10SM CLR 26/06 A2985 RMK AO2
KDXX 192034Z AUTO 19014G22KT 10SM CLR 26/06 A2986 RMK AO2
KDXX 192014Z AUTO 20013G21KT 10SM CLR 26/06 A2987 RMK AO2
KDXX 191954Z AUTO 19014G19KT 10SM CLR 26/06 A2987 RMK AO2
KDXX 191934Z AUTO 20013G18KT 10SM CLR 26/06 A2989 RMK AO2
KDXX 191914Z AUTO 20015G22KT 10SM CLR 25/05 A2989 RMK AO2
KDXX 191854Z AUTO 20012G23KT 10SM CLR 25/03 A2990 RMK AO2
KDXX 191834Z AUTO 20009G21KT 10SM CLR 23/03 A2991 RMK AO2
KDXX 191759Z AUTO 19012G17KT 10SM CLR 23/03 A2992 RMK AO2
KDXX 191734Z AUTO 19015G25KT 10SM CLR 23/02 A2993 RMK AO2
KDXX 191714Z AUTO 18020G28KT 10SM CLR 23/02 A2993 RMK AO2
KDXX 191654Z AUTO 20014G21KT 10SM CLR 22/02 A2994 RMK AO2
KDXX 191634Z AUTO 20018G24KT 10SM CLR 22/02 A2994 RMK AO2
KDXX 191614Z AUTO 20015G21KT 10SM CLR 21/02 A2995 RMK AO2
KDXX 191554Z AUTO 19010G15KT 10SM CLR 19/02 A2996 RMK AO2
KDXX 191534Z AUTO 19011G15KT 10SM CLR 18/02 A2996 RMK AO2
KDXX 191514Z AUTO 18009KT 10SM CLR 15/03 A2996 RMK AO2
KDXX 191454Z AUTO 18006KT 10SM CLR 13/03 A2996 RMK AO2
KDXX 191434Z AUTO 17009KT 10SM CLR 12/02 A2996 RMK AO2
KDXX 191414Z AUTO 17007KT 10SM CLR 11/02 A2997 RMK AO2
KDXX 191354Z AUTO 16006KT 10SM CLR 08/02 A2997 RMK AO2
KDXX 191334Z AUTO 16005KT 10SM CLR 08/01 A2997 RMK AO2